sensor_id;sensor_type;location;lat;lon;timestamp;pressure;altitude;pressure_sealevel;temperature;humidity
5814;BME280;2933;52.302;8.134;2023-03-13T00:02:45;99275.78;;;7.43;100.00
5814;BME280;2933;52.302;8.134;2023-03-13T00:07:48;99274.81;;;7.32;100.00
5814;BME280;2933;52.302;8.134;2023-03-13T00:12:49;99258.31;;;7.33;100.00
5814;BME280;2933;52.302;8.134;2023-03-13T00:17:51;99256.84;;;7.41;100.00
5814;BME280;2933;52.302;8.134;2023-03-13T00:22:54;99244.59;;;7.56;100.00
5814;BME280;2933;52.302;8.134;2023-03-13T00:27:55;99240.75;;;7.49;100.00
5814;BME280;2933;52.302;8.134;2023-03-13T00:32:57;99242.59;;;7.47;100.00
5814;BME280;2933;52.302;8.134;2023-03-13T00:38:00;99218.41;;;7.47;100.00
5814;BME280;2933;52.302;8.134;2023-03-13T00:43:01;99226.69;;;7.52;100.00
5814;BME280;2933;52.302;8.134;2023-03-13T00:48:03;99219.94;;;7.49;100.00
5814;BME280;2933;52.302;8.134;2023-03-13T00:53:06;99214.00;;;7.47;100.00
5814;BME280;2933;52.302;8.134;2023-03-13T00:58:08;99206.22;;;7.47;100.00
5814;BME280;2933;52.302;8.134;2023-03-13T01:03:09;99197.09;;;7.41;100.00
5814;BME280;2933;52.302;8.134;2023-03-13T01:08:12;99202.09;;;7.32;100.00
5814;BME280;2933;52.302;8.134;2023-03-13T01:13:14;99176.72;;;7.35;100.00
5814;BME280;2933;52.302;8.134;2023-03-13T01:18:15;99175.91;;;7.35;100.00
5814;BME280;2933;52.302;8.134;2023-03-13T01:23:19;99156.38;;;7.29;100.00
5814;BME280;2933;52.302;8.134;2023-03-13T01:28:21;99157.19;;;7.30;100.00
5814;BME280;2933;52.302;8.134;2023-03-13T01:33:23;99139.03;;;7.17;100.00
5814;BME280;2933;52.302;8.134;2023-03-13T01:38:26;99124.38;;;7.16;100.00
5814;BME280;2933;52.302;8.134;2023-03-13T01:43:30;99107.53;;;7.08;100.00
5814;BME280;2933;52.302;8.134;2023-03-13T01:48:40;99095.59;;;7.06;100.00
5814;BME280;2933;52.302;8.134;2023-03-13T01:53:46;99074.75;;;6.94;100.00
5814;BME280;2933;52.302;8.134;2023-03-13T01:58:51;99063.84;;;6.89;100.00
5814;BME280;2933;52.302;8.134;2023-03-13T02:03:55;99057.50;;;6.81;100.00
5814;BME280;2933;52.302;8.134;2023-03-13T02:09:02;99040.50;;;6.76;100.00
5814;BME280;2933;52.302;8.134;2023-03-13T02:14:06;99021.38;;;6.77;100.00
5814;BME280;2933;52.302;8.134;2023-03-13T02:19:17;99008.63;;;6.74;100.00
5814;BME280;2933;52.302;8.134;2023-03-13T02:24:29;98978.41;;;6.73;100.00
5814;BME280;2933;52.302;8.134;2023-03-13T02:29:34;98962.03;;;6.73;100.00
5814;BME280;2933;52.302;8.134;2023-03-13T02:34:38;98942.50;;;6.80;100.00
5814;BME280;2933;52.302;8.134;2023-03-13T02:39:44;98925.97;;;6.81;100.00
5814;BME280;2933;52.302;8.134;2023-03-13T02:44:48;98919.03;;;6.82;100.00
5814;BME280;2933;52.302;8.134;2023-03-13T02:49:50;98895.34;;;6.86;100.00
5814;BME280;2933;52.302;8.134;2023-03-13T02:54:56;98881.69;;;6.95;100.00
5814;BME280;2933;52.302;8.134;2023-03-13T03:00:00;98879.72;;;6.99;100.00
5814;BME280;2933;52.302;8.134;2023-03-13T03:05:06;98865.19;;;6.97;100.00
5814;BME280;2933;52.302;8.134;2023-03-13T03:10:09;98857.22;;;6.87;100.00
5814;BME280;2933;52.302;8.134;2023-03-13T03:15:12;98849.72;;;6.95;100.00
5814;BME280;2933;52.302;8.134;2023-03-13T03:20:14;98848.66;;;6.98;100.00
5814;BME280;2933;52.302;8.134;2023-03-13T03:25:15;98835.94;;;7.06;100.00
5814;BME280;2933;52.302;8.134;2023-03-13T03:30:18;98812.38;;;7.09;100.00
5814;BME280;2933;52.302;8.134;2023-03-13T03:35:20;98800.69;;;7.15;100.00
5814;BME280;2933;52.302;8.134;2023-03-13T03:40:21;98793.47;;;7.07;100.00
5814;BME280;2933;52.302;8.134;2023-03-13T03:45:24;98801.22;;;7.31;100.00
5814;BME280;2933;52.302;8.134;2023-03-13T03:50:26;98778.19;;;7.26;100.00
5814;BME280;2933;52.302;8.134;2023-03-13T03:55:28;98781.97;;;7.34;100.00
5814;BME280;2933;52.302;8.134;2023-03-13T04:00:30;98748.56;;;7.40;100.00
5814;BME280;2933;52.302;8.134;2023-03-13T04:05:32;98748.09;;;7.47;100.00
5814;BME280;2933;52.302;8.134;2023-03-13T04:10:34;98743.84;;;7.46;100.00
5814;BME280;2933;52.302;8.134;2023-03-13T04:15:38;98716.44;;;7.41;100.00
5814;BME280;2933;52.302;8.134;2023-03-13T04:20:40;98722.38;;;7.55;100.00
5814;BME280;2933;52.302;8.134;2023-03-13T04:25:41;98734.16;;;7.59;100.00
5814;BME280;2933;52.302;8.134;2023-03-13T04:30:44;98726.38;;;7.59;100.00
5814;BME280;2933;52.302;8.134;2023-03-13T04:35:46;98712.31;;;7.62;100.00
5814;BME280;2933;52.302;8.134;2023-03-13T04:40:47;98705.72;;;7.69;100.00
5814;BME280;2933;52.302;8.134;2023-03-13T04:45:52;98692.47;;;7.72;100.00
5814;BME280;2933;52.302;8.134;2023-03-13T04:50:55;98684.69;;;7.83;100.00
5814;BME280;2933;52.302;8.134;2023-03-13T04:55:56;98683.13;;;7.81;100.00
5814;BME280;2933;52.302;8.134;2023-03-13T05:00:59;98678.16;;;7.89;100.00
5814;BME280;2933;52.302;8.134;2023-03-13T05:06:00;98660.78;;;7.89;100.00
5814;BME280;2933;52.302;8.134;2023-03-13T05:11:02;98670.22;;;7.90;100.00
5814;BME280;2933;52.302;8.134;2023-03-13T05:16:06;98673.88;;;7.99;100.00
5814;BME280;2933;52.302;8.134;2023-03-13T05:21:09;98658.03;;;8.02;100.00
5814;BME280;2933;52.302;8.134;2023-03-13T05:26:10;98642.66;;;8.11;100.00
5814;BME280;2933;52.302;8.134;2023-03-13T05:31:13;98649.97;;;8.17;100.00
5814;BME280;2933;52.302;8.134;2023-03-13T05:36:15;98637.91;;;8.16;100.00
5814;BME280;2933;52.302;8.134;2023-03-13T05:41:16;98629.56;;;8.33;100.00
5814;BME280;2933;52.302;8.134;2023-03-13T05:46:19;98619.28;;;8.32;100.00
5814;BME280;2933;52.302;8.134;2023-03-13T05:51:21;98612.75;;;8.37;100.00
5814;BME280;2933;52.302;8.134;2023-03-13T05:56:22;98593.13;;;8.33;100.00
5814;BME280;2933;52.302;8.134;2023-03-13T06:01:25;98606.56;;;8.50;100.00
5814;BME280;2933;52.302;8.134;2023-03-13T06:06:27;98617.97;;;8.59;100.00
5814;BME280;2933;52.302;8.134;2023-03-13T06:11:28;98604.78;;;8.50;100.00
5814;BME280;2933;52.302;8.134;2023-03-13T06:16:32;98608.53;;;8.57;100.00
5814;BME280;2933;52.302;8.134;2023-03-13T06:21:34;98596.56;;;8.76;100.00
5814;BME280;2933;52.302;8.134;2023-03-13T06:26:35;98608.94;;;8.84;100.00
5814;BME280;2933;52.302;8.134;2023-03-13T06:31:40;98607.75;;;8.88;100.00
5814;BME280;2933;52.302;8.134;2023-03-13T06:36:42;98577.97;;;8.81;100.00
5814;BME280;2933;52.302;8.134;2023-03-13T06:41:44;98608.97;;;9.15;100.00
5814;BME280;2933;52.302;8.134;2023-03-13T06:46:47;98602.50;;;9.09;100.00
5814;BME280;2933;52.302;8.134;2023-03-13T06:51:48;98609.66;;;9.17;100.00
5814;BME280;2933;52.302;8.134;2023-03-13T06:56:50;98605.22;;;9.29;100.00
5814;BME280;2933;52.302;8.134;2023-03-13T07:01:53;98592.19;;;9.38;100.00
5814;BME280;2933;52.302;8.134;2023-03-13T07:06:54;98600.13;;;9.37;100.00
5814;BME280;2933;52.302;8.134;2023-03-13T07:11:56;98618.00;;;9.42;100.00
5814;BME280;2933;52.302;8.134;2023-03-13T07:16:59;98597.28;;;9.40;100.00
5814;BME280;2933;52.302;8.134;2023-03-13T07:22:00;98606.22;;;9.57;100.00
5814;BME280;2933;52.302;8.134;2023-03-13T07:27:02;98602.66;;;9.58;100.00
5814;BME280;2933;52.302;8.134;2023-03-13T07:32:06;98618.91;;;9.81;100.00
5814;BME280;2933;52.302;8.134;2023-03-13T07:37:07;98612.63;;;9.84;100.00
5814;BME280;2933;52.302;8.134;2023-03-13T07:42:09;98615.38;;;9.92;100.00
5814;BME280;2933;52.302;8.134;2023-03-13T07:47:12;98583.94;;;9.84;100.00
5814;BME280;2933;52.302;8.134;2023-03-13T07:52:14;98598.34;;;10.08;100.00
5814;BME280;2933;52.302;8.134;2023-03-13T07:57:15;98588.06;;;10.16;100.00
5814;BME280;2933;52.302;8.134;2023-03-13T08:02:18;98567.84;;;10.08;100.00
5814;BME280;2933;52.302;8.134;2023-03-13T08:07:20;98588.63;;;10.19;100.00
5814;BME280;2933;52.302;8.134;2023-03-13T08:12:21;98588.63;;;10.19;100.00
5814;BME280;2933;52.302;8.134;2023-03-13T08:17:24;98586.56;;;10.23;100.00
5814;BME280;2933;52.302;8.134;2023-03-13T08:22:26;98572.97;;;10.29;100.00
5814;BME280;2933;52.302;8.134;2023-03-13T08:27:28;98583.69;;;10.36;100.00
5814;BME280;2933;52.302;8.134;2023-03-13T08:32:33;98584.25;;;10.40;100.00
5814;BME280;2933;52.302;8.134;2023-03-13T08:37:34;98577.50;;;10.47;100.00
5814;BME280;2933;52.302;8.134;2023-03-13T08:42:37;98561.28;;;10.53;100.00
5814;BME280;2933;52.302;8.134;2023-03-13T08:47:40;98569.53;;;10.48;100.00
5814;BME280;2933;52.302;8.134;2023-03-13T08:52:43;98558.66;;;10.53;100.00
5814;BME280;2933;52.302;8.134;2023-03-13T08:57:45;98553.72;;;10.50;100.00
5814;BME280;2933;52.302;8.134;2023-03-13T09:02:48;98590.22;;;10.79;100.00
5814;BME280;2933;52.302;8.134;2023-03-13T09:07:50;98580.31;;;10.83;100.00
5814;BME280;2933;52.302;8.134;2023-03-13T09:12:51;98587.03;;;10.86;100.00
5814;BME280;2933;52.302;8.134;2023-03-13T09:17:54;98564.72;;;10.91;100.00
5814;BME280;2933;52.302;8.134;2023-03-13T09:22:56;98560.75;;;10.87;100.00
5814;BME280;2933;52.302;8.134;2023-03-13T09:27:57;98571.22;;;10.87;100.00
5814;BME280;2933;52.302;8.134;2023-03-13T09:33:00;98578.44;;;11.03;100.00
5814;BME280;2933;52.302;8.134;2023-03-13T09:38:01;98558.28;;;11.23;100.00
5814;BME280;2933;52.302;8.134;2023-03-13T09:43:03;98547.19;;;11.39;100.00
5814;BME280;2933;52.302;8.134;2023-03-13T09:48:12;98549.75;;;11.67;100.00
5814;BME280;2933;52.302;8.134;2023-03-13T09:53:24;98533.34;;;11.75;100.00
5814;BME280;2933;52.302;8.134;2023-03-13T09:58:32;98536.25;;;11.72;100.00
5814;BME280;2933;52.302;8.134;2023-03-13T10:03:39;98536.78;;;11.75;100.00
5814;BME280;2933;52.302;8.134;2023-03-13T10:08:43;98531.31;;;11.87;100.00
5814;BME280;2933;52.302;8.134;2023-03-13T10:13:47;98528.69;;;12.23;100.00
5814;BME280;2933;52.302;8.134;2023-03-13T10:18:54;98533.13;;;12.22;100.00
5814;BME280;2933;52.302;8.134;2023-03-13T10:23:59;98529.75;;;12.56;100.00
5814;BME280;2933;52.302;8.134;2023-03-13T10:29:19;98534.09;;;12.48;100.00
5814;BME280;2933;52.302;8.134;2023-03-13T10:34:22;98530.69;;;12.47;100.00
5814;BME280;2933;52.302;8.134;2023-03-13T10:39:26;98502.84;;;12.46;100.00
5814;BME280;2933;52.302;8.134;2023-03-13T10:44:32;98516.03;;;12.63;100.00
5814;BME280;2933;52.302;8.134;2023-03-13T10:49:46;98502.31;;;13.03;100.00
5814;BME280;2933;52.302;8.134;2023-03-13T10:54:47;98496.25;;;13.11;100.00
5814;BME280;2933;52.302;8.134;2023-03-13T10:59:49;98482.66;;;12.99;100.00
5814;BME280;2933;52.302;8.134;2023-03-13T11:04:54;98490.41;;;13.25;100.00
5814;BME280;2933;52.302;8.134;2023-03-13T11:09:57;98472.47;;;13.64;100.00
5814;BME280;2933;52.302;8.134;2023-03-13T11:15:00;98483.81;;;13.89;100.00
5814;BME280;2933;52.302;8.134;2023-03-13T11:20:10;98473.81;;;13.68;100.00
5814;BME280;2933;52.302;8.134;2023-03-13T11:25:33;98473.13;;;13.66;100.00
5814;BME280;2933;52.302;8.134;2023-03-13T11:31:02;98484.28;;;13.76;100.00
5814;BME280;2933;52.302;8.134;2023-03-13T11:36:14;98461.34;;;13.86;100.00
5814;BME280;2933;52.302;8.134;2023-03-13T11:41:29;98471.44;;;14.39;100.00
5814;BME280;2933;52.302;8.134;2023-03-13T11:46:42;98470.16;;;14.35;100.00
5814;BME280;2933;52.302;8.134;2023-03-13T11:51:58;98433.44;;;14.10;100.00
5814;BME280;2933;52.302;8.134;2023-03-13T11:57:06;98431.78;;;14.09;100.00
5814;BME280;2933;52.302;8.134;2023-03-13T12:02:18;98420.91;;;14.29;100.00
5814;BME280;2933;52.302;8.134;2023-03-13T12:07:26;98403.81;;;14.41;100.00
5814;BME280;2933;52.302;8.134;2023-03-13T12:12:36;98399.06;;;14.28;100.00
5814;BME280;2933;52.302;8.134;2023-03-13T12:17:42;98409.09;;;14.25;99.03
5814;BME280;2933;52.302;8.134;2023-03-13T12:22:53;98408.78;;;14.28;100.00
5814;BME280;2933;52.302;8.134;2023-03-13T12:28:02;98408.81;;;14.11;100.00
5814;BME280;2933;52.302;8.134;2023-03-13T12:33:14;98393.16;;;14.34;98.47
5814;BME280;2933;52.302;8.134;2023-03-13T12:38:23;98389.34;;;14.37;97.69
5814;BME280;2933;52.302;8.134;2023-03-13T12:43:30;98345.44;;;14.22;97.84
5814;BME280;2933;52.302;8.134;2023-03-13T12:48:42;98359.25;;;14.56;97.32
5814;BME280;2933;52.302;8.134;2023-03-13T12:54:10;98351.69;;;14.61;96.31
5814;BME280;2933;52.302;8.134;2023-03-13T12:59:18;98336.03;;;14.76;95.22
5814;BME280;2933;52.302;8.134;2023-03-13T13:04:26;98325.69;;;14.75;94.89
5814;BME280;2933;52.302;8.134;2023-03-13T13:09:33;98321.25;;;14.98;91.66
5814;BME280;2933;52.302;8.134;2023-03-13T13:15:15;98313.09;;;15.31;87.99
5814;BME280;2933;52.302;8.134;2023-03-13T13:20:33;98327.81;;;15.26;85.71
5814;BME280;2933;52.302;8.134;2023-03-13T13:25:36;98314.19;;;14.99;85.84
5814;BME280;2933;52.302;8.134;2023-03-13T13:30:38;98324.47;;;15.09;86.23
5814;BME280;2933;52.302;8.134;2023-03-13T13:35:40;98311.31;;;14.85;87.76
5814;BME280;2933;52.302;8.134;2023-03-13T13:40:57;98294.84;;;14.68;89.88
5814;BME280;2933;52.302;8.134;2023-03-13T13:46:01;98293.47;;;14.81;89.54
5814;BME280;2933;52.302;8.134;2023-03-13T13:51:32;98310.28;;;14.95;82.72
5814;BME280;2933;52.302;8.134;2023-03-13T13:56:38;98300.16;;;14.83;83.56
5814;BME280;2933;52.302;8.134;2023-03-13T14:01:41;98296.56;;;14.84;85.31
5814;BME280;2933;52.302;8.134;2023-03-13T14:06:46;98307.94;;;15.23;84.43
5814;BME280;2933;52.302;8.134;2023-03-13T14:11:51;98290.00;;;15.27;82.73
5814;BME280;2933;52.302;8.134;2023-03-13T14:16:53;98293.47;;;15.57;83.11
5814;BME280;2933;52.302;8.134;2023-03-13T14:21:58;98290.75;;;15.50;80.17
5814;BME280;2933;52.302;8.134;2023-03-13T14:27:02;98267.69;;;15.52;77.92
5814;BME280;2933;52.302;8.134;2023-03-13T14:32:16;98257.88;;;15.46;76.64
5814;BME280;2933;52.302;8.134;2023-03-13T14:37:34;98269.09;;;15.25;74.32
5814;BME280;2933;52.302;8.134;2023-03-13T14:42:45;98245.34;;;15.18;75.54
5814;BME280;2933;52.302;8.134;2023-03-13T14:47:48;98237.13;;;14.98;74.42
5814;BME280;2933;52.302;8.134;2023-03-13T14:52:52;98242.50;;;15.05;75.82
5814;BME280;2933;52.302;8.134;2023-03-13T14:57:58;98245.31;;;15.03;74.75
5814;BME280;2933;52.302;8.134;2023-03-13T15:03:22;98238.66;;;14.93;75.86
5814;BME280;2933;52.302;8.134;2023-03-13T15:08:24;98226.34;;;14.70;78.54
5814;BME280;2933;52.302;8.134;2023-03-13T15:13:35;98216.31;;;14.74;79.80
5814;BME280;2933;52.302;8.134;2023-03-13T15:18:37;98213.38;;;14.68;80.53
5814;BME280;2933;52.302;8.134;2023-03-13T15:23:39;98213.41;;;14.60;81.35
5814;BME280;2933;52.302;8.134;2023-03-13T15:28:42;98205.84;;;14.65;79.20
5814;BME280;2933;52.302;8.134;2023-03-13T15:33:44;98197.63;;;14.68;79.52
5814;BME280;2933;52.302;8.134;2023-03-13T15:38:45;98194.34;;;14.66;79.71
5814;BME280;2933;52.302;8.134;2023-03-13T15:43:49;98189.94;;;14.59;78.95
5814;BME280;2933;52.302;8.134;2023-03-13T15:48:54;98181.47;;;14.48;79.47
5814;BME280;2933;52.302;8.134;2023-03-13T15:53:55;98165.47;;;14.58;78.77
5814;BME280;2933;52.302;8.134;2023-03-13T15:58:58;98155.31;;;14.55;78.98
5814;BME280;2933;52.302;8.134;2023-03-13T16:04:00;98155.97;;;14.57;80.50
5814;BME280;2933;52.302;8.134;2023-03-13T16:09:03;98155.66;;;14.52;81.00
5814;BME280;2933;52.302;8.134;2023-03-13T16:14:07;98153.50;;;14.55;81.98
5814;BME280;2933;52.302;8.134;2023-03-13T16:19:09;98147.94;;;14.50;82.02
5814;BME280;2933;52.302;8.134;2023-03-13T16:24:10;98135.44;;;14.37;83.20
5814;BME280;2933;52.302;8.134;2023-03-13T16:29:14;98121.53;;;14.29;83.31
5814;BME280;2933;52.302;8.134;2023-03-13T16:34:16;98118.25;;;14.27;83.07
5814;BME280;2933;52.302;8.134;2023-03-13T16:39:18;98115.94;;;14.09;84.15
5814;BME280;2933;52.302;8.134;2023-03-13T16:44:20;98114.63;;;14.04;83.83
5814;BME280;2933;52.302;8.134;2023-03-13T16:49:22;98108.28;;;13.99;83.44
5814;BME280;2933;52.302;8.134;2023-03-13T16:54:24;98102.97;;;13.84;84.46
5814;BME280;2933;52.302;8.134;2023-03-13T16:59:26;98096.06;;;13.83;83.41
5814;BME280;2933;52.302;8.134;2023-03-13T17:04:29;98094.75;;;13.79;83.08
5814;BME280;2933;52.302;8.134;2023-03-13T17:09:31;98077.69;;;13.51;85.02
5814;BME280;2933;52.302;8.134;2023-03-13T17:14:33;98089.03;;;13.52;85.99
5814;BME280;2933;52.302;8.134;2023-03-13T17:19:35;98092.84;;;13.33;88.38
5814;BME280;2933;52.302;8.134;2023-03-13T17:24:36;98103.97;;;13.35;87.78
5814;BME280;2933;52.302;8.134;2023-03-13T17:29:39;98090.91;;;13.27;89.52
5814;BME280;2933;52.302;8.134;2023-03-13T17:34:41;98092.09;;;13.16;90.47
5814;BME280;2933;52.302;8.134;2023-03-13T17:39:43;98090.78;;;13.12;91.06
5814;BME280;2933;52.302;8.134;2023-03-13T17:44:46;98098.81;;;13.10;91.23
5814;BME280;2933;52.302;8.134;2023-03-13T17:49:47;98105.50;;;13.13;90.58
5814;BME280;2933;52.302;8.134;2023-03-13T17:54:49;98104.59;;;12.89;91.88
5814;BME280;2933;52.302;8.134;2023-03-13T17:59:51;98106.56;;;12.87;91.91
5814;BME280;2933;52.302;8.134;2023-03-13T18:04:53;98096.44;;;12.67;93.74
5814;BME280;2933;52.302;8.134;2023-03-13T18:09:55;98120.84;;;12.68;93.85
5814;BME280;2933;52.302;8.134;2023-03-13T18:14:58;98114.47;;;12.62;95.11
5814;BME280;2933;52.302;8.134;2023-03-13T18:19:59;98111.00;;;12.61;95.37
5814;BME280;2933;52.302;8.134;2023-03-13T18:25:01;98100.06;;;12.50;96.54
5814;BME280;2933;52.302;8.134;2023-03-13T18:30:11;98095.66;;;12.58;95.42
5814;BME280;2933;52.302;8.134;2023-03-13T18:35:14;98091.69;;;12.54;95.75
5814;BME280;2933;52.302;8.134;2023-03-13T18:40:17;98093.19;;;12.49;96.17
5814;BME280;2933;52.302;8.134;2023-03-13T18:45:22;98078.31;;;12.41;97.07
5814;BME280;2933;52.302;8.134;2023-03-13T18:50:26;98075.50;;;12.34;97.68
5814;BME280;2933;52.302;8.134;2023-03-13T18:55:29;98067.66;;;12.34;98.89
5814;BME280;2933;52.302;8.134;2023-03-13T19:00:33;98049.69;;;12.31;99.57
5814;BME280;2933;52.302;8.134;2023-03-13T19:05:35;98040.34;;;12.28;100.00
5814;BME280;2933;52.302;8.134;2023-03-13T19:10:36;98040.03;;;12.23;100.00
5814;BME280;2933;52.302;8.134;2023-03-13T19:15:40;98045.41;;;12.05;100.00
5814;BME280;2933;52.302;8.134;2023-03-13T19:20:42;98054.03;;;11.89;100.00
5814;BME280;2933;52.302;8.134;2023-03-13T19:25:43;98058.63;;;11.87;100.00
5814;BME280;2933;52.302;8.134;2023-03-13T19:30:46;98062.09;;;11.96;100.00
5814;BME280;2933;52.302;8.134;2023-03-13T19:35:48;98067.28;;;11.88;100.00
5814;BME280;2933;52.302;8.134;2023-03-13T19:40:50;98066.63;;;11.86;100.00
5814;BME280;2933;52.302;8.134;2023-03-13T19:45:53;98065.94;;;11.75;100.00
5814;BME280;2933;52.302;8.134;2023-03-13T19:50:54;98076.75;;;11.80;100.00
5814;BME280;2933;52.302;8.134;2023-03-13T19:55:56;98072.34;;;11.81;100.00
5814;BME280;2933;52.302;8.134;2023-03-13T20:00:59;98073.00;;;11.75;100.00
5814;BME280;2933;52.302;8.134;2023-03-13T20:06:00;98056.81;;;11.71;100.00
5814;BME280;2933;52.302;8.134;2023-03-13T20:11:02;98041.75;;;11.73;100.00
5814;BME280;2933;52.302;8.134;2023-03-13T20:16:07;98022.13;;;11.69;100.00
5814;BME280;2933;52.302;8.134;2023-03-13T20:21:10;98018.69;;;11.60;100.00
5814;BME280;2933;52.302;8.134;2023-03-13T20:26:12;98013.47;;;11.60;100.00
5814;BME280;2933;52.302;8.134;2023-03-13T20:31:18;98014.25;;;11.44;100.00
5814;BME280;2933;52.302;8.134;2023-03-13T20:36:20;98011.47;;;11.38;100.00
5814;BME280;2933;52.302;8.134;2023-03-13T20:41:22;98015.53;;;11.40;100.00
5814;BME280;2933;52.302;8.134;2023-03-13T20:46:27;98020.28;;;11.37;100.00
5814;BME280;2933;52.302;8.134;2023-03-13T20:51:28;98025.97;;;11.32;100.00
5814;BME280;2933;52.302;8.134;2023-03-13T20:56:31;98025.94;;;11.24;100.00
5814;BME280;2933;52.302;8.134;2023-03-13T21:01:34;98032.28;;;11.13;100.00
5814;BME280;2933;52.302;8.134;2023-03-13T21:06:36;98036.03;;;11.10;100.00
5814;BME280;2933;52.302;8.134;2023-03-13T21:11:37;98030.06;;;10.92;100.00
5814;BME280;2933;52.302;8.134;2023-03-13T21:16:40;98025.81;;;10.91;100.00
5814;BME280;2933;52.302;8.134;2023-03-13T21:21:41;98018.91;;;10.81;100.00
5814;BME280;2933;52.302;8.134;2023-03-13T21:26:43;98017.75;;;10.84;100.00
5814;BME280;2933;52.302;8.134;2023-03-13T21:31:46;98000.28;;;10.76;100.00
5814;BME280;2933;52.302;8.134;2023-03-13T21:36:47;97975.75;;;10.69;100.00
5814;BME280;2933;52.302;8.134;2023-03-13T21:41:49;97974.53;;;10.55;100.00
5814;BME280;2933;52.302;8.134;2023-03-13T21:46:52;97977.81;;;10.57;100.00
5814;BME280;2933;52.302;8.134;2023-03-13T21:51:53;97979.13;;;10.53;100.00
5814;BME280;2933;52.302;8.134;2023-03-13T21:56:55;98007.34;;;10.58;100.00
5814;BME280;2933;52.302;8.134;2023-03-13T22:01:58;97979.97;;;10.62;100.00
5814;BME280;2933;52.302;8.134;2023-03-13T22:07:00;97975.44;;;10.72;100.00
5814;BME280;2933;52.302;8.134;2023-03-13T22:12:01;97973.50;;;10.74;100.00
5814;BME280;2933;52.302;8.134;2023-03-13T22:17:04;97971.66;;;10.66;100.00
5814;BME280;2933;52.302;8.134;2023-03-13T22:22:06;97971.03;;;10.73;100.00
5814;BME280;2933;52.302;8.134;2023-03-13T22:27:08;97943.94;;;10.65;100.00
5814;BME280;2933;52.302;8.134;2023-03-13T22:32:11;97925.16;;;10.70;100.00
5814;BME280;2933;52.302;8.134;2023-03-13T22:37:13;97940.66;;;10.63;100.00
5814;BME280;2933;52.302;8.134;2023-03-13T22:42:14;97966.72;;;10.55;100.00
5814;BME280;2933;52.302;8.134;2023-03-13T22:47:17;97977.31;;;10.54;100.00
5814;BME280;2933;52.302;8.134;2023-03-13T22:52:19;97974.25;;;10.58;100.00
5814;BME280;2933;52.302;8.134;2023-03-13T22:57:28;97961.19;;;10.58;100.00
5814;BME280;2933;52.302;8.134;2023-03-13T23:02:30;97980.78;;;10.62;100.00
5814;BME280;2933;52.302;8.134;2023-03-13T23:07:32;97971.22;;;10.45;100.00
5814;BME280;2933;52.302;8.134;2023-03-13T23:12:35;97983.97;;;10.48;100.00
5814;BME280;2933;52.302;8.134;2023-03-13T23:17:38;98003.22;;;10.47;100.00
5814;BME280;2933;52.302;8.134;2023-03-13T23:22:40;97994.09;;;10.51;100.00
5814;BME280;2933;52.302;8.134;2023-03-13T23:27:42;97982.09;;;10.58;100.00
5814;BME280;2933;52.302;8.134;2023-03-13T23:32:45;97962.56;;;10.71;100.00
5814;BME280;2933;52.302;8.134;2023-03-13T23:37:48;97930.72;;;10.67;100.00
5814;BME280;2933;52.302;8.134;2023-03-13T23:42:50;97923.06;;;10.65;100.00
5814;BME280;2933;52.302;8.134;2023-03-13T23:47:53;97920.75;;;10.62;100.00
5814;BME280;2933;52.302;8.134;2023-03-13T23:52:55;97910.59;;;10.51;100.00
5814;BME280;2933;52.302;8.134;2023-03-13T23:57:56;97914.66;;;10.54;100.00
